Heat Index SAI AWOS Graphical Display Untitled Document
Sidney Municipal Airport , NY ( N23 )
000
10:01
17/12/17
00
N/A
N/A
30.22
N/A
1027
18(F), -8(C)
15(F), -9(C)
18 F
92%
OVC022
10
Missing
N/A
N/A
10:01 zulu Wind Calm, Altimeter 30.22
METAR KN23 171001Z AUTO 00000KT 10SM OVC022 M08/M09 A3022 A02
METAR:
FAA Disclaimer--Advisory Use ONLY, not for flight info-- 6/29/2009: Sidney Airport, operations 607-561-2346, Pilots with cellphones (smartphones) can now view awos at http://www.saiawos3.com/N23
INFO:
Wind Direction:
Wind Speed:
Wind Gust:
Wind Variable:
Altimeter:
Dens Alt:
Elev:
Temp:
Dwpt:
Wind Chill
Rel Humidity:
Ceiling:
Visibility:
Prsnt Wea:
PCPN:
Remarks:
How to read the WebPage